Time,TemperatureF,DewpointF,PressureIn,WindDirection,WindDirectionDegrees,WindSpeedMPH,WindSpeedGustMPH,Humidity,HourlyPrecipIn,Conditions,Clouds,dailyrainin,SoftwareType,DateUTC
2014-02-19 00:04:00,44.5,32.0,29.80,WNW,294,0.0,1.0,63,0.00,,,0.00,weatherlink.com 1.10,2014-02-19 07:04:00,
2014-02-19 00:19:00,43.5,32.0,29.80,WNW,294,0.0,1.0,65,0.00,,,0.00,weatherlink.com 1.10,2014-02-19 07:19:00,
2014-02-19 00:34:00,42.5,31.0,29.80,WNW,294,0.0,0.0,65,0.00,,,0.00,weatherlink.com 1.10,2014-02-19 07:34:00,
2014-02-19 00:49:00,41.8,32.0,29.80,WNW,294,0.0,0.0,67,0.00,,,0.00,weatherlink.com 1.10,2014-02-19 07:49:00,
2014-02-19 01:04:00,41.0,31.0,29.80,WNW,294,0.0,0.0,68,0.00,,,0.00,weatherlink.com 1.10,2014-02-19 08:04:00,
2014-02-19 01:20:00,40.3,30.0,29.80,WNW,294,0.0,1.0,68,0.00,,,0.00,weatherlink.com 1.10,2014-02-19 08:20:00,
2014-02-19 01:36:00,39.5,31.0,29.80,WNW,294,0.0,1.0,71,0.00,,,0.00,weatherlink.com 1.10,2014-02-19 08:36:00,
2014-02-19 01:50:00,39.1,31.0,29.80,WNW,294,0.0,2.0,72,0.00,,,0.00,weatherlink.com 1.10,2014-02-19 08:50:00,
2014-02-19 02:05:00,38.4,31.0,29.79,WNW,294,0.0,1.0,74,0.00,,,0.00,weatherlink.com 1.10,2014-02-19 09:05:00,
2014-02-19 02:20:00,38.4,31.0,29.79,WNW,294,0.0,1.0,74,0.00,,,0.00,weatherlink.com 1.10,2014-02-19 09:20:00,
2014-02-19 02:35:00,38.2,31.0,29.79,WNW,294,0.0,0.0,75,0.00,,,0.00,weatherlink.com 1.10,2014-02-19 09:35:00,
2014-02-19 02:50:00,37.8,31.0,29.78,WNW,294,0.0,0.0,76,0.00,,,0.00,weatherlink.com 1.10,2014-02-19 09:50:00,
2014-02-19 03:05:00,37.6,31.0,29.78,WNW,294,0.0,1.0,77,0.00,,,0.00,weatherlink.com 1.10,2014-02-19 10:05:00,
2014-02-19 03:20:00,37.4,31.0,29.78,WNW,294,0.0,1.0,78,0.00,,,0.00,weatherlink.com 1.10,2014-02-19 10:20:00,
2014-02-19 03:35:00,37.3,31.0,29.77,WNW,294,0.0,0.0,77,0.00,,,0.00,weatherlink.com 1.10,2014-02-19 10:35:00,
2014-02-19 03:50:00,37.0,31.0,29.77,WNW,294,0.0,0.0,78,0.00,,,0.00,weatherlink.com 1.10,2014-02-19 10:50:00,
2014-02-19 04:05:00,36.8,31.0,29.77,WNW,294,1.0,2.0,79,0.00,,,0.00,weatherlink.com 1.10,2014-02-19 11:05:00,
2014-02-19 04:20:00,37.0,31.0,29.76,WNW,290,0.0,2.0,78,0.00,,,0.00,weatherlink.com 1.10,2014-02-19 11:20:00,
2014-02-19 04:35:00,36.8,31.0,29.76,WNW,290,0.0,2.0,78,0.00,,,0.00,weatherlink.com 1.10,2014-02-19 11:35:00,
2014-02-19 04:50:00,36.1,30.0,29.76,WNW,290,0.0,0.0,78,0.00,,,0.00,weatherlink.com 1.10,2014-02-19 11:50:00,
2014-02-19 05:05:00,35.2,30.0,29.77,WNW,290,0.0,2.0,80,0.00,,,0.00,weatherlink.com 1.10,2014-02-19 12:05:00,
2014-02-19 05:20:00,34.6,29.0,29.76,WNW,290,0.0,0.0,81,0.00,,,0.00,weatherlink.com 1.10,2014-02-19 12:20:00,
2014-02-19 05:35:00,34.0,29.0,29.76,WNW,290,0.0,0.0,82,0.00,,,0.00,weatherlink.com 1.10,2014-02-19 12:35:00,
2014-02-19 05:50:00,33.3,28.0,29.76,WNW,290,0.0,1.0,82,0.00,,,0.00,weatherlink.com 1.10,2014-02-19 12:50:00,
2014-02-19 06:05:00,32.9,28.0,29.76,WNW,290,0.0,0.0,83,0.00,,,0.00,weatherlink.com 1.10,2014-02-19 13:05:00,
2014-02-19 06:20:00,32.6,28.0,29.77,WNW,290,0.0,0.0,84,0.00,,,0.00,weatherlink.com 1.10,2014-02-19 13:20:00,
2014-02-19 06:35:00,32.2,28.0,29.77,WNW,290,0.0,0.0,85,0.00,,,0.00,weatherlink.com 1.10,2014-02-19 13:35:00,
2014-02-19 06:50:00,31.6,28.0,29.76,WNW,290,0.0,1.0,85,0.00,,,0.00,weatherlink.com 1.10,2014-02-19 13:50:00,
2014-02-19 07:05:00,31.1,27.0,29.77,WNW,290,0.0,0.0,83,0.00,,,0.00,weatherlink.com 1.10,2014-02-19 14:05:00,
2014-02-19 07:20:00,30.9,26.0,29.77,WNW,290,0.0,0.0,82,0.00,,,0.00,weatherlink.com 1.10,2014-02-19 14:20:00,
2014-02-19 07:35:00,30.8,26.0,29.78,SW,221,1.0,1.0,82,0.00,,,0.00,weatherlink.com 1.10,2014-02-19 14:35:00,
2014-02-19 07:50:00,31.4,27.0,29.78,South,184,0.0,1.0,85,0.00,,,0.00,weatherlink.com 1.10,2014-02-19 14:50:00,
2014-02-19 08:05:00,32.4,28.0,29.79,South,184,0.0,0.0,84,0.00,,,0.00,weatherlink.com 1.10,2014-02-19 15:05:00,
2014-02-19 08:20:00,34.6,30.0,29.79,South,184,1.0,1.0,84,0.00,,,0.00,weatherlink.com 1.10,2014-02-19 15:20:00,
2014-02-19 08:36:00,38.6,30.0,29.79,South,184,0.0,1.0,72,0.00,,,0.00,weatherlink.com 1.10,2014-02-19 15:36:00,
2014-02-19 08:51:00,42.3,33.0,29.79,South,184,0.0,1.0,70,0.00,,,0.00,weatherlink.com 1.10,2014-02-19 15:51:00,
2014-02-19 09:06:00,46.5,33.0,29.78,South,184,0.0,1.0,59,0.00,,,0.00,weatherlink.com 1.10,2014-02-19 16:06:00,
2014-02-19 09:21:00,49.9,30.0,29.79,South,184,0.0,1.0,46,0.00,,,0.00,weatherlink.com 1.10,2014-02-19 16:21:00,
2014-02-19 09:36:00,52.9,32.0,29.78,SSE,152,0.0,2.0,45,0.00,,,0.00,weatherlink.com 1.10,2014-02-19 16:36:00,
2014-02-19 09:51:00,55.0,29.0,29.78,South,171,0.0,2.0,37,0.00,,,0.00,weatherlink.com 1.10,2014-02-19 16:51:00,
2014-02-19 10:06:00,57.0,31.0,29.77,WSW,238,2.0,4.0,37,0.00,,,0.00,weatherlink.com 1.10,2014-02-19 17:06:00,
2014-02-19 10:21:00,58.9,32.0,29.77,WSW,237,1.0,2.0,36,0.00,,,0.00,weatherlink.com 1.10,2014-02-19 17:21:00,
2014-02-19 10:36:00,59.5,30.0,29.76,ESE,119,0.0,4.0,33,0.00,,,0.00,weatherlink.com 1.10,2014-02-19 17:36:00,
2014-02-19 10:51:00,60.1,30.0,29.76,NW,309,3.0,4.0,32,0.00,,,0.00,weatherlink.com 1.10,2014-02-19 17:51:00,
2014-02-19 11:06:00,61.9,31.0,29.75,West,278,3.0,5.0,31,0.00,,,0.00,weatherlink.com 1.10,2014-02-19 18:06:00,
2014-02-19 11:21:00,63.4,32.0,29.74,ESE,108,0.0,4.0,31,0.00,,,0.00,weatherlink.com 1.10,2014-02-19 18:21:00,
2014-02-19 11:36:00,64.8,33.0,29.73,East,80,6.0,7.0,30,0.00,,,0.00,weatherlink.com 1.10,2014-02-19 18:36:00,
2014-02-19 11:51:00,65.1,34.0,29.71,ESE,109,8.0,8.0,31,0.00,,,0.00,weatherlink.com 1.10,2014-02-19 18:51:00,
2014-02-19 12:06:00,67.0,33.0,29.69,East,86,3.0,9.0,28,0.00,,,0.00,weatherlink.com 1.10,2014-02-19 19:06:00,
2014-02-19 12:21:00,68.2,33.0,29.68,ESE,111,4.0,11.0,27,0.00,,,0.00,weatherlink.com 1.10,2014-02-19 19:21:00,
2014-02-19 12:36:00,68.8,32.0,29.67,South,181,3.0,11.0,26,0.00,,,0.00,weatherlink.com 1.10,2014-02-19 19:36:00,
2014-02-19 12:51:00,69.1,34.0,29.65,SSW,203,1.0,4.0,27,0.00,,,0.00,weatherlink.com 1.10,2014-02-19 19:51:00,
2014-02-19 13:06:00,69.4,31.0,29.64,NW,309,0.0,4.0,24,0.00,,,0.00,weatherlink.com 1.10,2014-02-19 20:06:00,
2014-02-19 13:22:00,70.7,32.0,29.62,NE,48,0.0,6.0,24,0.00,,,0.00,weatherlink.com 1.10,2014-02-19 20:22:00,
2014-02-19 13:37:00,71.0,34.0,29.61,NW,324,3.0,7.0,26,0.00,,,0.00,weatherlink.com 1.10,2014-02-19 20:37:00,
2014-02-19 13:52:00,74.1,33.0,29.59,WNW,295,7.0,7.0,22,0.00,,,0.00,weatherlink.com 1.10,2014-02-19 20:52:00,
2014-02-19 14:07:00,75.2,30.0,29.57,East,85,6.0,9.0,19,0.00,,,0.00,weatherlink.com 1.10,2014-02-19 21:07:00,
2014-02-19 14:22:00,75.4,28.0,29.57,NE,52,5.0,9.0,17,0.00,,,0.00,weatherlink.com 1.10,2014-02-19 21:22:00,
2014-02-19 14:37:00,76.9,24.0,29.56,SW,226,9.0,10.0,14,0.00,,,0.00,weatherlink.com 1.10,2014-02-19 21:37:00,
2014-02-19 14:52:00,78.5,22.0,29.57,WSW,250,11.0,13.0,12,0.00,,,0.00,weatherlink.com 1.10,2014-02-19 21:52:00,
2014-02-19 15:07:00,78.3,24.0,29.56,SW,216,4.0,15.0,13,0.00,,,0.00,weatherlink.com 1.10,2014-02-19 22:07:00,
2014-02-19 15:22:00,77.5,23.0,29.57,SSW,200,6.0,17.0,13,0.00,,,0.00,weatherlink.com 1.10,2014-02-19 22:22:00,
2014-02-19 15:37:00,76.9,22.0,29.57,West,269,10.0,19.0,13,0.00,,,0.00,weatherlink.com 1.10,2014-02-19 22:37:00,
2014-02-19 15:52:00,76.1,22.0,29.57,WSW,246,8.0,26.0,13,0.00,,,0.00,weatherlink.com 1.10,2014-02-19 22:52:00,
2014-02-19 16:07:00,75.8,21.0,29.58,WSW,254,3.0,20.0,13,0.00,,,0.00,weatherlink.com 1.10,2014-02-19 23:07:00,
2014-02-19 16:22:00,75.4,19.0,29.58,WSW,243,5.0,19.0,12,0.00,,,0.00,weatherlink.com 1.10,2014-02-19 23:22:00,
2014-02-19 16:37:00,74.1,20.0,29.58,SW,233,11.0,20.0,13,0.00,,,0.00,weatherlink.com 1.10,2014-02-19 23:37:00,
2014-02-19 16:52:00,72.7,19.0,29.58,WSW,242,15.0,19.0,13,0.00,,,0.00,weatherlink.com 1.10,2014-02-19 23:52:00,
2014-02-19 17:07:00,71.9,18.0,29.58,WSW,247,4.0,13.0,13,0.00,,,0.00,weatherlink.com 1.10,2014-02-20 00:07:00,
2014-02-19 17:22:00,71.1,18.0,29.57,WSW,252,6.0,20.0,13,0.00,,,0.00,weatherlink.com 1.10,2014-02-20 00:22:00,
2014-02-19 17:37:00,70.2,19.0,29.58,SW,217,10.0,20.0,14,0.00,,,0.00,weatherlink.com 1.10,2014-02-20 00:37:00,
2014-02-19 17:52:00,68.8,18.0,29.59,WNW,288,7.0,14.0,14,0.00,,,0.00,weatherlink.com 1.10,2014-02-20 00:52:00,
2014-02-19 18:07:00,67.7,18.0,29.60,SW,227,6.0,13.0,15,0.00,,,0.00,weatherlink.com 1.10,2014-02-20 01:07:00,
2014-02-19 18:22:00,67.2,18.0,29.61,SW,221,5.0,13.0,15,0.00,,,0.00,weatherlink.com 1.10,2014-02-20 01:22:00,
2014-02-19 18:37:00,66.7,19.0,29.61,WNW,292,6.0,19.0,16,0.00,,,0.00,weatherlink.com 1.10,2014-02-20 01:37:00,
2014-02-19 18:52:00,65.9,18.0,29.63,WNW,284,6.0,12.0,16,0.00,,,0.00,weatherlink.com 1.10,2014-02-20 01:52:00,
2014-02-19 19:07:00,64.8,19.0,29.64,West,267,5.0,8.0,17,0.00,,,0.00,weatherlink.com 1.10,2014-02-20 02:07:00,
2014-02-19 19:22:00,64.4,17.0,29.65,WNW,285,1.0,7.0,16,0.00,,,0.00,weatherlink.com 1.10,2014-02-20 02:22:00,
2014-02-19 19:37:00,62.7,14.0,29.65,West,262,1.0,4.0,15,0.00,,,0.00,weatherlink.com 1.10,2014-02-20 02:37:00,
2014-02-19 19:52:00,61.4,12.0,29.66,WNW,296,0.0,5.0,14,0.00,,,0.00,weatherlink.com 1.10,2014-02-20 02:52:00,
2014-02-19 20:07:00,60.7,9.0,29.67,WNW,294,2.0,8.0,13,0.00,,,0.00,weatherlink.com 1.10,2014-02-20 03:07:00,
2014-02-19 20:22:00,60.9,10.0,29.67,NW,311,0.0,7.0,13,0.00,,,0.00,weatherlink.com 1.10,2014-02-20 03:22:00,
2014-02-19 20:37:00,61.0,8.0,29.67,NW,317,6.0,13.0,12,0.00,,,0.00,weatherlink.com 1.10,2014-02-20 03:37:00,
2014-02-19 20:52:00,61.4,8.0,29.68,NW,306,4.0,9.0,12,0.00,,,0.00,weatherlink.com 1.10,2014-02-20 03:52:00,
2014-02-19 21:07:00,61.1,10.0,29.68,WNW,300,7.0,8.0,13,0.00,,,0.00,weatherlink.com 1.10,2014-02-20 04:07:00,
2014-02-19 21:22:00,60.7,9.0,29.68,NW,315,2.0,10.0,13,0.00,,,0.00,weatherlink.com 1.10,2014-02-20 04:22:00,
2014-02-19 21:37:00,59.9,9.0,29.68,WNW,292,6.0,12.0,13,0.00,,,0.00,weatherlink.com 1.10,2014-02-20 04:37:00,
2014-02-19 21:52:00,60.9,8.0,29.68,West,273,8.0,13.0,12,0.00,,,0.00,weatherlink.com 1.10,2014-02-20 04:52:00,
2014-02-19 22:07:00,61.5,6.0,29.69,NW,320,10.0,12.0,11,0.00,,,0.00,weatherlink.com 1.10,2014-02-20 05:07:00,
2014-02-19 22:22:00,61.2,6.0,29.69,West,271,3.0,12.0,11,0.00,,,0.00,weatherlink.com 1.10,2014-02-20 05:22:00,
2014-02-19 22:37:00,60.5,11.0,29.70,East,86,1.0,6.0,14,0.00,,,0.00,weatherlink.com 1.10,2014-02-20 05:37:00,
2014-02-19 22:52:00,56.2,10.0,29.71,SW,226,2.0,3.0,16,0.00,,,0.00,weatherlink.com 1.10,2014-02-20 05:52:00,
2014-02-19 23:07:00,53.1,10.0,29.72,NW,323,0.0,3.0,18,0.00,,,0.00,weatherlink.com 1.10,2014-02-20 06:07:00,
2014-02-19 23:22:00,53.8,7.0,29.73,North,355,3.0,5.0,15,0.00,,,0.00,weatherlink.com 1.10,2014-02-20 06:22:00,
2014-02-19 23:37:00,53.2,8.0,29.73,North,355,4.0,4.0,16,0.00,,,0.00,weatherlink.com 1.10,2014-02-20 06:37:00,
2014-02-19 23:52:00,52.0,7.0,29.74,NNW,338,2.0,5.0,16,0.00,,,0.00,weatherlink.com 1.10,2014-02-20 06:52:00,